IkaScore Players IkaScore Alliances






Support IkaScore

Please donate to
me@ikascore.com

using Skrill
Latvia Epsilon
Ikariam players: 50
AverageTotal
Kopējais punktu skaits: 23745961 1187298031
Celtnieki: 19670755 983537771
Celtniecības līmeņi: 2933 4391146
Zinātnieki: 841622 1259908452
Pētniecības līmenis: 290 434172
Ģenerāļi: 11922 17846995
Zelts: 35951493 1797574626
Uzbrukuma punkti: 3307 4950948
Aizsardzības punkti: 4864 7281936
Tirdzniecības statistika: 2973 4451229
Resursi: 14783292 739164599
ziedot: 422677 632748160
Score vulnerability: 172911 258848227
Gold vulnerability: 38074 56997455
Population: 17464 26143880
Donations to score: 350032 523998270

Digg! Delicious! IkaScore homepage
Alliances - Kopējais punktu skaits
  per page  
Rank Alliance Score Type Average Score Updated
1 LAT Kopējais punktu skaits 10435352 1053970557 19/04 16:54
2 ZXN Kopējais punktu skaits 9751972 916685401 19/04 16:54
3 EŽI Kopējais punktu skaits 48823113 634700472 19/04 16:54
4 NEZIN Kopējais punktu skaits 9240799 554447927 19/04 16:54
5 P-Z Kopējais punktu skaits 9369516 468475796 19/04 16:54
6 KidLV Kopējais punktu skaits 10585964 402266639 19/04 16:54
7 DESA Kopējais punktu skaits 7242483 181062085 19/04 16:54
8 SOG Kopējais punktu skaits 10435860 177409618 19/04 16:54
9 K15R Kopējais punktu skaits 19063788 171574096 19/04 16:54
10 BNK Kopējais punktu skaits 1778320 161827096 19/04 16:54
11 LVS- Kopējais punktu skaits 12971094 129710936 19/04 16:54
12 TRVIP Kopējais punktu skaits 5729374 108858099 19/04 16:54
13 PO- Kopējais punktu skaits 8111363 105447715 19/04 16:54
14 SPARS Kopējais punktu skaits 11813522 94508178 19/04 16:54
15 -FX- Kopējais punktu skaits 9311859 93118594 19/04 16:54
16 -AHA- Kopējais punktu skaits 4195815 92307921 19/04 16:54
17 RedS Kopējais punktu skaits 13615499 68077495 19/04 16:54
18 new Kopējais punktu skaits 5119704 56316745 19/04 16:54
19 KuP Kopējais punktu skaits 4211236 54746067 19/04 16:54
20 L V K Kopējais punktu skaits 3938773 39387729 19/04 16:54
21 Z P Kopējais punktu skaits 18769112 37538224 19/04 16:54
22 Kat Kopējais punktu skaits 16429948 32859896 19/04 16:54
23 _LK_ Kopējais punktu skaits 5405015 32430088 19/04 16:54
24 LVO Kopējais punktu skaits 7890002 31560009 19/04 16:54
25 KF P Kopējais punktu skaits 30874795 30874795 19/04 16:54
26 B_S Kopējais punktu skaits 4391753 30742271 19/04 16:54
27 123e Kopējais punktu skaits 22217009 22217009 19/04 16:54
28 TAG Kopējais punktu skaits 635320 20965567 19/04 16:54
29 D-H Kopējais punktu skaits 17608894 17608894 19/04 16:54
30 Andre Kopējais punktu skaits 17344243 17344243 19/04 16:54
31 FIRE Kopējais punktu skaits 5499265 16497794 19/04 16:54
32 NRWL Kopējais punktu skaits 2581271 15487624 19/04 16:54
33 LVL Kopējais punktu skaits 2944969 14724844 19/04 16:54
34 -OO- Kopējais punktu skaits 7276006 14552011 19/04 16:54
35 NEZLN Kopējais punktu skaits 1480340 13323056 19/04 16:54
36 LLS Kopējais punktu skaits 1666137 11662959 19/04 16:54
37 BrivL Kopējais punktu skaits 1217600 10958397 19/04 16:54
38 -KC- Kopējais punktu skaits 10056823 10056823 19/04 16:54
39 B-I-A Kopējais punktu skaits 2000233 10001164 19/04 16:54
40 S-M Kopējais punktu skaits 825807 9909686 19/04 16:54
41 -CP- Kopējais punktu skaits 3259104 9777311 19/04 16:54
42 Ku-kū Kopējais punktu skaits 9433833 9433833 19/04 16:54
43 V-V Kopējais punktu skaits 9381796 9381796 19/04 16:54
44 AGs Kopējais punktu skaits 4406579 8813157 19/04 16:54
45 -re- Kopējais punktu skaits 8807744 8807744 19/04 16:54
46 ENDE Kopējais punktu skaits 132587 7292310 19/04 16:54
47 BANDA Kopējais punktu skaits 377792 6800260 19/04 16:54
48 B_N Kopējais punktu skaits 686877 6181893 19/04 16:54
49 -NV- Kopējais punktu skaits 5571250 5571250 19/04 16:54
50 Bot Kopējais punktu skaits 680022 5440175 19/04 16:54
51 ILG Kopējais punktu skaits 5102488 5102488 19/04 16:54
52 P-P Kopējais punktu skaits 278062 5005123 19/04 16:54
53 legia Kopējais punktu skaits 5004740 5004740 19/04 16:54
54 oWo Kopējais punktu skaits 2432580 4865160 19/04 16:54
55 4NLV Kopējais punktu skaits 920328 4601641 19/04 16:54
56 -PM- Kopējais punktu skaits 1783023 3566046 19/04 16:54
57 BEK Kopējais punktu skaits 3528426 3528426 19/04 16:54
58 DRAG Kopējais punktu skaits 1154658 3463973 19/04 16:54
59 ZAZ Kopējais punktu skaits 2629668 2629668 19/04 16:54
60 Saw Kopējais punktu skaits 2614519 2614519 19/04 16:54
61 321 Kopējais punktu skaits 2407212 2407212 19/04 16:54
62 ROKO Kopējais punktu skaits 2135351 2135351 19/04 16:54
63 exKUP Kopējais punktu skaits 2084501 2084501 19/04 16:54
64 G-Man Kopējais punktu skaits 142608 1711294 19/04 16:54
65 LVF Kopējais punktu skaits 1354431 1354431 19/04 16:54
66 KKK Kopējais punktu skaits 191417 1339921 19/04 16:54
67 AOD Kopējais punktu skaits 317702 1270809 19/04 16:54
68 Vilki Kopējais punktu skaits 204421 1226525 19/04 16:54
69 CIR Kopējais punktu skaits 1028122 1028122 19/04 16:54
70 TRp Kopējais punktu skaits 101402 912618 19/04 16:54
71 KVL Kopējais punktu skaits 792484 792484 19/04 16:54
72 PiR Kopējais punktu skaits 753191 753191 19/04 16:54
73 ODA Kopējais punktu skaits 695516 695516 19/04 16:54
74 EGY Kopējais punktu skaits 385048 385048 19/04 16:54
75 DUJA Kopējais punktu skaits 202962 202962 19/04 16:54
76 D-M Kopējais punktu skaits 191087 191087 19/04 16:54
77 Troja Kopējais punktu skaits 78446 156892 19/04 16:54
78 uwu Kopējais punktu skaits 123035 123035 19/04 16:54
79 SWS Kopējais punktu skaits 78426 78426 19/04 16:54
  per page  

Copyright © 2010 IkaScore.com All Rights Reserved | Disclaimer